AU-0054 weather

Delatite Airstrip
Delatite, Victoria, Australia

Public forecast

Using degrees Celsius for public forecast. Weather courtesy of forecast.io.

Closest aviation weather report (METAR) to Delatite Airstrip

Closest report is Wangaratta Airport, 44.4 nm (82.1 km) N. Retrieved 2020/01/29 07:00 UTC (57 minutes ago):

YWGT 290700Z AUTO 22010KT 9999 // NCD 36/M07 Q1011

Closest aviation forecast (TAF) to Delatite Airstrip

Closest forecast is Wangaratta Airport, 44.4 nm (82.1 km) N. Retrieved 2020/01/29 08:33 UTC (0 seconds ago):

TAF TAF YWGT 290703Z 2908/2920 23008KT CAVOK BECMG 2910/2912 VRB05KT CAVOK